sensor_id;sensor_type;location;lat;lon;timestamp;pressure;altitude;pressure_sealevel;temperature;humidity
70437;BME280;57877;39.750;-104.894;2023-12-22T00:02:16;84016.84;;;12.23;17.61
70437;BME280;57877;39.750;-104.894;2023-12-22T00:04:41;84018.11;;;11.95;17.82
70437;BME280;57877;39.750;-104.894;2023-12-22T00:07:06;84021.74;;;12.17;17.62
70437;BME280;57877;39.750;-104.894;2023-12-22T00:09:31;84023.50;;;12.41;17.62
70437;BME280;57877;39.750;-104.894;2023-12-22T00:11:56;84027.82;;;11.94;17.66
70437;BME280;57877;39.750;-104.894;2023-12-22T00:14:21;84028.25;;;12.17;17.57
70437;BME280;57877;39.750;-104.894;2023-12-22T00:16:46;84031.17;;;12.00;17.71
70437;BME280;57877;39.750;-104.894;2023-12-22T00:19:11;84034.15;;;12.06;17.86
70437;BME280;57877;39.750;-104.894;2023-12-22T00:21:36;84039.12;;;12.16;17.79
70437;BME280;57877;39.750;-104.894;2023-12-22T00:24:01;84040.31;;;12.55;17.77
70437;BME280;57877;39.750;-104.894;2023-12-22T00:26:26;84040.40;;;12.04;17.86
70437;BME280;57877;39.750;-104.894;2023-12-22T00:28:51;84041.50;;;12.22;17.90
70437;BME280;57877;39.750;-104.894;2023-12-22T00:31:17;84044.66;;;12.44;17.98
70437;BME280;57877;39.750;-104.894;2023-12-22T00:33:42;84046.14;;;11.95;18.00
70437;BME280;57877;39.750;-104.894;2023-12-22T00:36:07;84049.86;;;12.09;18.22
70437;BME280;57877;39.750;-104.894;2023-12-22T00:38:32;84055.98;;;11.98;18.38
70437;BME280;57877;39.750;-104.894;2023-12-22T00:40:57;84056.88;;;11.88;18.59
70437;BME280;57877;39.750;-104.894;2023-12-22T00:43:22;84054.82;;;11.00;19.26
70437;BME280;57877;39.750;-104.894;2023-12-22T00:45:47;84055.44;;;11.73;18.73
70437;BME280;57877;39.750;-104.894;2023-12-22T00:48:12;84057.08;;;11.77;18.65
70437;BME280;57877;39.750;-104.894;2023-12-22T00:50:37;84060.73;;;11.56;18.53
70437;BME280;57877;39.750;-104.894;2023-12-22T00:53:02;84061.78;;;11.41;18.78
70437;BME280;57877;39.750;-104.894;2023-12-22T00:55:27;84064.49;;;11.38;18.91
70437;BME280;57877;39.750;-104.894;2023-12-22T00:57:52;84067.18;;;11.48;19.01
70437;BME280;57877;39.750;-104.894;2023-12-22T01:00:17;84065.73;;;11.50;19.04
70437;BME280;57877;39.750;-104.894;2023-12-22T01:02:42;84067.09;;;11.24;19.37
70437;BME280;57877;39.750;-104.894;2023-12-22T01:05:07;84064.63;;;11.26;19.62
70437;BME280;57877;39.750;-104.894;2023-12-22T01:07:32;84064.68;;;11.04;19.56
70437;BME280;57877;39.750;-104.894;2023-12-22T01:09:57;84069.91;;;10.75;19.60
70437;BME280;57877;39.750;-104.894;2023-12-22T01:12:22;84072.83;;;11.25;19.53
70437;BME280;57877;39.750;-104.894;2023-12-22T01:14:47;84073.31;;;11.24;19.51
70437;BME280;57877;39.750;-104.894;2023-12-22T01:17:12;84074.98;;;11.22;19.47
70437;BME280;57877;39.750;-104.894;2023-12-22T01:19:37;84078.32;;;10.84;19.75
70437;BME280;57877;39.750;-104.894;2023-12-22T01:22:03;84077.89;;;10.79;19.80
70437;BME280;57877;39.750;-104.894;2023-12-22T01:24:27;84079.14;;;10.84;20.00
70437;BME280;57877;39.750;-104.894;2023-12-22T01:26:52;84083.16;;;10.74;20.24
70437;BME280;57877;39.750;-104.894;2023-12-22T01:29:17;84082.52;;;10.58;20.20
70437;BME280;57877;39.750;-104.894;2023-12-22T01:31:42;84083.40;;;10.46;20.86
70437;BME280;57877;39.750;-104.894;2023-12-22T01:34:07;84084.80;;;10.16;20.71
70437;BME280;57877;39.750;-104.894;2023-12-22T01:36:35;84083.73;;;9.94;20.84
70437;BME280;57877;39.750;-104.894;2023-12-22T01:38:57;84086.93;;;9.90;20.95
70437;BME280;57877;39.750;-104.894;2023-12-22T01:41:22;84091.53;;;10.41;21.01
70437;BME280;57877;39.750;-104.894;2023-12-22T01:43:47;84092.68;;;9.75;21.28
70437;BME280;57877;39.750;-104.894;2023-12-22T01:46:13;84092.56;;;9.92;21.50
70437;BME280;57877;39.750;-104.894;2023-12-22T01:48:38;84091.52;;;9.61;21.78
70437;BME280;57877;39.750;-104.894;2023-12-22T01:51:03;84094.06;;;9.36;21.85
70437;BME280;57877;39.750;-104.894;2023-12-22T01:53:28;84099.76;;;9.19;22.03
70437;BME280;57877;39.750;-104.894;2023-12-22T01:55:53;84101.59;;;9.51;21.68
70437;BME280;57877;39.750;-104.894;2023-12-22T01:58:18;84101.62;;;9.44;22.10
70437;BME280;57877;39.750;-104.894;2023-12-22T02:00:43;84106.11;;;9.53;22.03
70437;BME280;57877;39.750;-104.894;2023-12-22T02:03:08;84107.81;;;9.40;22.10
70437;BME280;57877;39.750;-104.894;2023-12-22T02:05:33;84110.25;;;9.06;22.57
70437;BME280;57877;39.750;-104.894;2023-12-22T02:07:58;84109.92;;;8.92;22.42
70437;BME280;57877;39.750;-104.894;2023-12-22T02:10:23;84110.49;;;9.30;22.52
70437;BME280;57877;39.750;-104.894;2023-12-22T02:12:48;84109.53;;;9.08;22.82
70437;BME280;57877;39.750;-104.894;2023-12-22T02:15:13;84112.08;;;8.78;22.75
70437;BME280;57877;39.750;-104.894;2023-12-22T02:17:47;84114.61;;;8.67;22.92
70437;BME280;57877;39.750;-104.894;2023-12-22T02:20:05;84115.23;;;8.60;23.62
70437;BME280;57877;39.750;-104.894;2023-12-22T02:22:30;84111.70;;;8.55;23.80
70437;BME280;57877;39.750;-104.894;2023-12-22T02:24:54;84113.16;;;8.45;23.79
70437;BME280;57877;39.750;-104.894;2023-12-22T02:27:28;84114.84;;;8.17;23.76
70437;BME280;57877;39.750;-104.894;2023-12-22T02:29:48;84114.94;;;8.28;24.95
70437;BME280;57877;39.750;-104.894;2023-12-22T02:32:14;84115.38;;;8.52;24.08
70437;BME280;57877;39.750;-104.894;2023-12-22T02:34:36;84114.36;;;8.33;24.13
70437;BME280;57877;39.750;-104.894;2023-12-22T02:37:00;84114.02;;;8.36;23.71
70437;BME280;57877;39.750;-104.894;2023-12-22T02:39:24;84113.81;;;8.30;23.77
70437;BME280;57877;39.750;-104.894;2023-12-22T02:41:49;84112.22;;;8.17;24.12
70437;BME280;57877;39.750;-104.894;2023-12-22T02:44:15;84115.31;;;8.28;23.93
70437;BME280;57877;39.750;-104.894;2023-12-22T02:46:40;84115.84;;;7.76;23.87
70437;BME280;57877;39.750;-104.894;2023-12-22T02:49:05;84116.40;;;7.97;23.64
70437;BME280;57877;39.750;-104.894;2023-12-22T02:51:31;84116.66;;;8.35;23.93
70437;BME280;57877;39.750;-104.894;2023-12-22T02:53:56;84114.49;;;7.91;24.18
70437;BME280;57877;39.750;-104.894;2023-12-22T02:56:21;84115.12;;;8.17;24.14
70437;BME280;57877;39.750;-104.894;2023-12-22T02:58:46;84114.78;;;8.24;23.82
70437;BME280;57877;39.750;-104.894;2023-12-22T03:01:11;84111.42;;;8.05;23.86
70437;BME280;57877;39.750;-104.894;2023-12-22T03:03:36;84113.29;;;8.20;23.61
70437;BME280;57877;39.750;-104.894;2023-12-22T03:06:02;84110.84;;;8.04;23.84
70437;BME280;57877;39.750;-104.894;2023-12-22T03:08:28;84108.15;;;8.09;23.98
70437;BME280;57877;39.750;-104.894;2023-12-22T03:10:53;84109.32;;;7.94;23.98
70437;BME280;57877;39.750;-104.894;2023-12-22T03:13:18;84111.18;;;7.96;24.29
70437;BME280;57877;39.750;-104.894;2023-12-22T03:15:43;84108.96;;;8.21;24.57
70437;BME280;57877;39.750;-104.894;2023-12-22T03:18:08;84107.59;;;8.23;24.66
70437;BME280;57877;39.750;-104.894;2023-12-22T03:20:33;84105.25;;;8.24;24.96
70437;BME280;57877;39.750;-104.894;2023-12-22T03:22:58;84105.67;;;8.12;25.24
70437;BME280;57877;39.750;-104.894;2023-12-22T03:25:23;84108.35;;;8.19;25.14
70437;BME280;57877;39.750;-104.894;2023-12-22T03:27:48;84106.57;;;7.12;26.48
70437;BME280;57877;39.750;-104.894;2023-12-22T03:30:14;84111.33;;;7.97;25.79
70437;BME280;57877;39.750;-104.894;2023-12-22T03:32:38;84112.98;;;8.25;25.68
70437;BME280;57877;39.750;-104.894;2023-12-22T03:35:04;84114.47;;;7.85;25.41
70437;BME280;57877;39.750;-104.894;2023-12-22T03:37:28;84114.66;;;7.81;25.19
70437;BME280;57877;39.750;-104.894;2023-12-22T03:39:53;84117.41;;;7.76;25.31
70437;BME280;57877;39.750;-104.894;2023-12-22T03:42:19;84116.75;;;6.55;27.15
70437;BME280;57877;39.750;-104.894;2023-12-22T03:44:44;84116.96;;;7.33;27.40
70437;BME280;57877;39.750;-104.894;2023-12-22T03:47:09;84116.77;;;6.93;28.36
70437;BME280;57877;39.750;-104.894;2023-12-22T03:49:34;84118.44;;;6.76;28.80
70437;BME280;57877;39.750;-104.894;2023-12-22T03:51:59;84118.06;;;6.59;28.85
70437;BME280;57877;39.750;-104.894;2023-12-22T03:54:24;84121.15;;;6.93;28.55
70437;BME280;57877;39.750;-104.894;2023-12-22T03:56:49;84119.75;;;7.09;28.10
70437;BME280;57877;39.750;-104.894;2023-12-22T03:59:14;84119.84;;;7.13;28.19
70437;BME280;57877;39.750;-104.894;2023-12-22T04:01:39;84119.12;;;6.86;28.25
70437;BME280;57877;39.750;-104.894;2023-12-22T04:04:04;84124.83;;;7.32;27.98
70437;BME280;57877;39.750;-104.894;2023-12-22T04:06:29;84128.64;;;7.40;28.21
70437;BME280;57877;39.750;-104.894;2023-12-22T04:08:54;84135.11;;;7.43;28.24
70437;BME280;57877;39.750;-104.894;2023-12-22T04:11:19;84139.41;;;7.26;28.18
70437;BME280;57877;39.750;-104.894;2023-12-22T04:13:44;84140.18;;;7.05;28.46
70437;BME280;57877;39.750;-104.894;2023-12-22T04:16:09;84141.89;;;6.52;29.10
70437;BME280;57877;39.750;-104.894;2023-12-22T04:18:34;84143.44;;;7.07;28.41
70437;BME280;57877;39.750;-104.894;2023-12-22T04:21:00;84141.34;;;7.14;28.34
70437;BME280;57877;39.750;-104.894;2023-12-22T04:23:25;84140.97;;;6.79;28.33
70437;BME280;57877;39.750;-104.894;2023-12-22T04:25:50;84140.83;;;7.02;28.17
70437;BME280;57877;39.750;-104.894;2023-12-22T04:28:15;84137.74;;;7.04;28.01
70437;BME280;57877;39.750;-104.894;2023-12-22T04:30:40;84139.14;;;6.67;28.26
70437;BME280;57877;39.750;-104.894;2023-12-22T04:33:05;84140.22;;;6.08;29.10
70437;BME280;57877;39.750;-104.894;2023-12-22T04:35:30;84139.39;;;6.10;29.21
70437;BME280;57877;39.750;-104.894;2023-12-22T04:37:55;84141.41;;;5.80;29.45
70437;BME280;57877;39.750;-104.894;2023-12-22T04:40:20;84136.68;;;6.02;29.09
70437;BME280;57877;39.750;-104.894;2023-12-22T04:42:45;84134.52;;;6.30;29.24
70437;BME280;57877;39.750;-104.894;2023-12-22T04:45:10;84135.68;;;5.24;30.08
70437;BME280;57877;39.750;-104.894;2023-12-22T04:47:35;84133.88;;;5.75;29.57
70437;BME280;57877;39.750;-104.894;2023-12-22T04:50:00;84132.47;;;5.57;29.70
70437;BME280;57877;39.750;-104.894;2023-12-22T04:52:25;84129.02;;;5.06;30.03
70437;BME280;57877;39.750;-104.894;2023-12-22T04:54:50;84125.63;;;5.26;30.03
70437;BME280;57877;39.750;-104.894;2023-12-22T04:57:15;84125.35;;;5.90;29.90
70437;BME280;57877;39.750;-104.894;2023-12-22T04:59:41;84122.89;;;5.65;29.66
70437;BME280;57877;39.750;-104.894;2023-12-22T05:02:06;84120.91;;;5.60;29.76
70437;BME280;57877;39.750;-104.894;2023-12-22T05:04:31;84119.95;;;5.82;29.85
70437;BME280;57877;39.750;-104.894;2023-12-22T05:06:56;84120.99;;;5.31;30.22
70437;BME280;57877;39.750;-104.894;2023-12-22T05:09:21;84123.77;;;5.21;30.30
70437;BME280;57877;39.750;-104.894;2023-12-22T05:11:46;84119.56;;;5.92;29.69
70437;BME280;57877;39.750;-104.894;2023-12-22T05:14:11;84118.57;;;5.72;29.95
70437;BME280;57877;39.750;-104.894;2023-12-22T05:16:36;84121.08;;;5.68;30.16
70437;BME280;57877;39.750;-104.894;2023-12-22T05:19:01;84126.17;;;5.09;31.13
70437;BME280;57877;39.750;-104.894;2023-12-22T05:21:26;84126.69;;;5.12;31.73
70437;BME280;57877;39.750;-104.894;2023-12-22T05:23:51;84126.99;;;5.22;32.39
70437;BME280;57877;39.750;-104.894;2023-12-22T05:26:18;84121.38;;;4.80;32.58
70437;BME280;57877;39.750;-104.894;2023-12-22T05:28:41;84123.73;;;4.84;32.69
70437;BME280;57877;39.750;-104.894;2023-12-22T05:31:07;84126.58;;;4.98;32.31
70437;BME280;57877;39.750;-104.894;2023-12-22T05:33:32;84130.64;;;5.09;32.24
70437;BME280;57877;39.750;-104.894;2023-12-22T05:35:57;84130.49;;;5.34;32.13
70437;BME280;57877;39.750;-104.894;2023-12-22T05:38:22;84137.59;;;4.82;32.68
70437;BME280;57877;39.750;-104.894;2023-12-22T05:40:47;84137.86;;;5.23;32.33
70437;BME280;57877;39.750;-104.894;2023-12-22T05:43:12;84138.03;;;5.00;31.97
70437;BME280;57877;39.750;-104.894;2023-12-22T05:45:37;84140.68;;;4.97;32.09
70437;BME280;57877;39.750;-104.894;2023-12-22T05:48:03;84139.33;;;4.65;32.62
70437;BME280;57877;39.750;-104.894;2023-12-22T05:50:27;84139.49;;;5.07;32.26
70437;BME280;57877;39.750;-104.894;2023-12-22T05:52:52;84140.95;;;4.67;32.48
70437;BME280;57877;39.750;-104.894;2023-12-22T05:55:17;84136.29;;;4.65;32.87
70437;BME280;57877;39.750;-104.894;2023-12-22T05:57:42;84133.27;;;4.24;33.46
70437;BME280;57877;39.750;-104.894;2023-12-22T06:00:08;84132.55;;;4.39;33.38
70437;BME280;57877;39.750;-104.894;2023-12-22T06:02:33;84130.58;;;4.42;32.91
70437;BME280;57877;39.750;-104.894;2023-12-22T06:04:58;84128.69;;;4.44;33.09
70437;BME280;57877;39.750;-104.894;2023-12-22T06:07:23;84126.80;;;4.40;33.24
70437;BME280;57877;39.750;-104.894;2023-12-22T06:09:48;84127.19;;;4.52;32.78
70437;BME280;57877;39.750;-104.894;2023-12-22T06:12:14;84123.91;;;4.59;32.93
70437;BME280;57877;39.750;-104.894;2023-12-22T06:14:38;84121.31;;;4.26;33.13
70437;BME280;57877;39.750;-104.894;2023-12-22T06:17:03;84121.59;;;4.73;33.01
70437;BME280;57877;39.750;-104.894;2023-12-22T06:19:28;84121.67;;;4.35;32.74
70437;BME280;57877;39.750;-104.894;2023-12-22T06:21:53;84117.61;;;4.45;32.98
70437;BME280;57877;39.750;-104.894;2023-12-22T06:24:18;84110.32;;;4.15;33.60
70437;BME280;57877;39.750;-104.894;2023-12-22T06:26:44;84107.24;;;4.03;33.94
70437;BME280;57877;39.750;-104.894;2023-12-22T06:29:09;84108.89;;;4.24;33.45
70437;BME280;57877;39.750;-104.894;2023-12-22T06:31:34;84106.10;;;4.28;33.46
70437;BME280;57877;39.750;-104.894;2023-12-22T06:33:59;84103.32;;;3.86;34.07
70437;BME280;57877;39.750;-104.894;2023-12-22T06:36:25;84100.95;;;4.33;33.26
70437;BME280;57877;39.750;-104.894;2023-12-22T06:38:49;84103.13;;;4.20;33.65
70437;BME280;57877;39.750;-104.894;2023-12-22T06:41:19;84107.83;;;3.76;33.83
70437;BME280;57877;39.750;-104.894;2023-12-22T06:43:39;84108.05;;;4.34;33.12
70437;BME280;57877;39.750;-104.894;2023-12-22T06:48:30;84108.86;;;4.41;32.56
70437;BME280;57877;39.750;-104.894;2023-12-22T06:50:55;84109.92;;;4.50;32.25
70437;BME280;57877;39.750;-104.894;2023-12-22T06:53:20;84103.47;;;3.99;32.94
70437;BME280;57877;39.750;-104.894;2023-12-22T06:55:46;84104.98;;;4.38;32.78
70437;BME280;57877;39.750;-104.894;2023-12-22T06:58:12;84107.21;;;3.65;33.81
70437;BME280;57877;39.750;-104.894;2023-12-22T07:00:37;84106.50;;;4.17;33.54
70437;BME280;57877;39.750;-104.894;2023-12-22T07:03:02;84104.30;;;4.08;33.38
70437;BME280;57877;39.750;-104.894;2023-12-22T07:05:33;84099.80;;;3.54;34.21
70437;BME280;57877;39.750;-104.894;2023-12-22T07:07:52;84097.81;;;3.85;33.91
70437;BME280;57877;39.750;-104.894;2023-12-22T07:10:17;84101.36;;;3.45;34.43
70437;BME280;57877;39.750;-104.894;2023-12-22T07:12:42;84100.08;;;3.65;34.19
70437;BME280;57877;39.750;-104.894;2023-12-22T07:15:08;84098.15;;;3.23;34.95
70437;BME280;57877;39.750;-104.894;2023-12-22T07:17:32;84098.57;;;3.34;34.72
70437;BME280;57877;39.750;-104.894;2023-12-22T07:19:57;84099.41;;;3.46;34.69
70437;BME280;57877;39.750;-104.894;2023-12-22T07:22:23;84097.03;;;3.36;34.89
70437;BME280;57877;39.750;-104.894;2023-12-22T07:24:47;84094.84;;;3.61;34.65
70437;BME280;57877;39.750;-104.894;2023-12-22T07:27:13;84092.37;;;3.74;34.50
70437;BME280;57877;39.750;-104.894;2023-12-22T07:29:38;84091.94;;;3.87;34.30
70437;BME280;57877;39.750;-104.894;2023-12-22T07:32:03;84090.11;;;4.03;34.25
70437;BME280;57877;39.750;-104.894;2023-12-22T07:34:28;84091.49;;;3.47;35.07
70437;BME280;57877;39.750;-104.894;2023-12-22T07:36:53;84090.79;;;3.59;35.15
70437;BME280;57877;39.750;-104.894;2023-12-22T07:39:18;84090.29;;;2.90;35.47
70437;BME280;57877;39.750;-104.894;2023-12-22T07:41:43;84088.37;;;3.40;35.13
70437;BME280;57877;39.750;-104.894;2023-12-22T07:44:08;84082.84;;;2.79;35.84
70437;BME280;57877;39.750;-104.894;2023-12-22T07:46:33;84083.90;;;3.34;35.29
70437;BME280;57877;39.750;-104.894;2023-12-22T07:48:59;84082.86;;;3.43;34.68
70437;BME280;57877;39.750;-104.894;2023-12-22T07:51:23;84081.35;;;3.72;34.18
70437;BME280;57877;39.750;-104.894;2023-12-22T07:53:49;84084.52;;;4.28;33.25
70437;BME280;57877;39.750;-104.894;2023-12-22T07:56:14;84088.66;;;4.36;32.64
70437;BME280;57877;39.750;-104.894;2023-12-22T07:58:39;84087.13;;;3.45;33.78
70437;BME280;57877;39.750;-104.894;2023-12-22T08:01:04;84088.57;;;4.05;33.16
70437;BME280;57877;39.750;-104.894;2023-12-22T08:03:29;84087.48;;;3.75;33.46
70437;BME280;57877;39.750;-104.894;2023-12-22T08:05:54;84085.37;;;3.71;33.22
70437;BME280;57877;39.750;-104.894;2023-12-22T08:08:19;84084.94;;;3.47;33.66
70437;BME280;57877;39.750;-104.894;2023-12-22T08:10:44;84083.97;;;3.15;33.98
70437;BME280;57877;39.750;-104.894;2023-12-22T08:13:09;84077.85;;;3.69;32.84
70437;BME280;57877;39.750;-104.894;2023-12-22T08:15:34;84074.47;;;4.43;32.17
70437;BME280;57877;39.750;-104.894;2023-12-22T08:17:59;84071.50;;;4.07;31.94
70437;BME280;57877;39.750;-104.894;2023-12-22T08:20:24;84066.09;;;4.35;31.11
70437;BME280;57877;39.750;-104.894;2023-12-22T08:22:51;84064.14;;;4.54;30.38
70437;BME280;57877;39.750;-104.894;2023-12-22T08:25:15;84061.38;;;4.70;29.83
70437;BME280;57877;39.750;-104.894;2023-12-22T08:27:40;84065.25;;;4.99;29.22
70437;BME280;57877;39.750;-104.894;2023-12-22T08:30:06;84071.28;;;4.73;30.19
70437;BME280;57877;39.750;-104.894;2023-12-22T08:32:30;84072.78;;;4.73;30.68
70437;BME280;57877;39.750;-104.894;2023-12-22T08:34:55;84073.53;;;4.62;31.30
70437;BME280;57877;39.750;-104.894;2023-12-22T08:37:20;84072.04;;;5.09;31.45
70437;BME280;57877;39.750;-104.894;2023-12-22T08:39:45;84071.86;;;4.38;32.15
70437;BME280;57877;39.750;-104.894;2023-12-22T08:42:10;84072.57;;;4.55;32.24
70437;BME280;57877;39.750;-104.894;2023-12-22T08:44:35;84074.56;;;3.83;33.78
70437;BME280;57877;39.750;-104.894;2023-12-22T08:47:00;84074.01;;;3.38;34.42
70437;BME280;57877;39.750;-104.894;2023-12-22T08:49:25;84076.62;;;3.70;34.23
70437;BME280;57877;39.750;-104.894;2023-12-22T08:51:50;84078.32;;;3.86;33.69
70437;BME280;57877;39.750;-104.894;2023-12-22T08:54:15;84079.17;;;4.06;33.37
70437;BME280;57877;39.750;-104.894;2023-12-22T08:56:41;84082.06;;;4.07;33.56
70437;BME280;57877;39.750;-104.894;2023-12-22T08:59:06;84087.55;;;4.23;32.93
70437;BME280;57877;39.750;-104.894;2023-12-22T09:01:31;84090.51;;;4.22;32.50
70437;BME280;57877;39.750;-104.894;2023-12-22T09:03:56;84094.31;;;4.20;32.50
70437;BME280;57877;39.750;-104.894;2023-12-22T09:06:22;84093.25;;;4.26;32.47
70437;BME280;57877;39.750;-104.894;2023-12-22T09:08:46;84095.07;;;4.21;32.94
70437;BME280;57877;39.750;-104.894;2023-12-22T09:11:12;84099.54;;;3.73;33.75
70437;BME280;57877;39.750;-104.894;2023-12-22T09:13:36;84106.88;;;3.67;34.32
70437;BME280;57877;39.750;-104.894;2023-12-22T09:16:01;84110.44;;;3.99;33.71
70437;BME280;57877;39.750;-104.894;2023-12-22T09:18:26;84107.19;;;3.32;34.60
70437;BME280;57877;39.750;-104.894;2023-12-22T09:20:51;84103.62;;;3.33;34.68
70437;BME280;57877;39.750;-104.894;2023-12-22T09:23:16;84100.83;;;3.34;34.79
70437;BME280;57877;39.750;-104.894;2023-12-22T09:25:42;84100.16;;;2.91;35.39
70437;BME280;57877;39.750;-104.894;2023-12-22T09:28:07;84100.11;;;3.71;34.88
70437;BME280;57877;39.750;-104.894;2023-12-22T09:30:32;84105.12;;;3.81;33.97
70437;BME280;57877;39.750;-104.894;2023-12-22T09:32:57;84101.21;;;3.68;33.45
70437;BME280;57877;39.750;-104.894;2023-12-22T09:35:22;84103.22;;;3.91;33.28
70437;BME280;57877;39.750;-104.894;2023-12-22T09:37:47;84101.67;;;3.70;33.64
70437;BME280;57877;39.750;-104.894;2023-12-22T09:40:12;84096.06;;;3.48;33.94
70437;BME280;57877;39.750;-104.894;2023-12-22T09:42:40;84094.95;;;2.80;34.75
70437;BME280;57877;39.750;-104.894;2023-12-22T09:45:03;84100.65;;;3.49;34.14
70437;BME280;57877;39.750;-104.894;2023-12-22T09:47:28;84098.06;;;3.20;34.71
70437;BME280;57877;39.750;-104.894;2023-12-22T09:49:57;84097.39;;;3.10;34.65
70437;BME280;57877;39.750;-104.894;2023-12-22T09:52:18;84098.49;;;3.22;34.82
70437;BME280;57877;39.750;-104.894;2023-12-22T09:54:43;84094.50;;;3.30;34.59
70437;BME280;57877;39.750;-104.894;2023-12-22T09:57:08;84089.75;;;3.06;34.91
70437;BME280;57877;39.750;-104.894;2023-12-22T09:59:34;84086.45;;;3.13;34.82
70437;BME280;57877;39.750;-104.894;2023-12-22T10:02:00;84083.28;;;2.56;35.37
70437;BME280;57877;39.750;-104.894;2023-12-22T10:04:24;84080.90;;;2.66;35.46
70437;BME280;57877;39.750;-104.894;2023-12-22T10:06:48;84080.22;;;3.38;34.77
70437;BME280;57877;39.750;-104.894;2023-12-22T10:09:14;84078.43;;;2.66;34.99
70437;BME280;57877;39.750;-104.894;2023-12-22T10:11:39;84076.58;;;2.89;34.97
70437;BME280;57877;39.750;-104.894;2023-12-22T10:14:04;84077.96;;;3.24;34.54
70437;BME280;57877;39.750;-104.894;2023-12-22T10:16:29;84080.81;;;3.19;34.63
70437;BME280;57877;39.750;-104.894;2023-12-22T10:18:54;84082.73;;;3.43;33.96
70437;BME280;57877;39.750;-104.894;2023-12-22T10:21:19;84084.54;;;3.77;33.94
70437;BME280;57877;39.750;-104.894;2023-12-22T10:23:44;84080.92;;;3.37;34.42
70437;BME280;57877;39.750;-104.894;2023-12-22T10:26:11;84079.09;;;3.21;34.64
70437;BME280;57877;39.750;-104.894;2023-12-22T10:28:34;84076.19;;;3.13;34.78
70437;BME280;57877;39.750;-104.894;2023-12-22T10:30:59;84073.19;;;3.21;34.65
70437;BME280;57877;39.750;-104.894;2023-12-22T10:33:24;84068.35;;;2.94;35.13
70437;BME280;57877;39.750;-104.894;2023-12-22T10:35:50;84061.55;;;2.94;35.42
70437;BME280;57877;39.750;-104.894;2023-12-22T10:38:15;84055.50;;;3.29;35.50
70437;BME280;57877;39.750;-104.894;2023-12-22T10:40:40;84056.70;;;2.69;36.06
70437;BME280;57877;39.750;-104.894;2023-12-22T10:43:05;84054.16;;;2.52;35.70
70437;BME280;57877;39.750;-104.894;2023-12-22T10:45:31;84054.42;;;2.76;35.30
70437;BME280;57877;39.750;-104.894;2023-12-22T10:47:55;84060.91;;;3.15;34.68
70437;BME280;57877;39.750;-104.894;2023-12-22T10:50:20;84060.22;;;3.11;34.52
70437;BME280;57877;39.750;-104.894;2023-12-22T10:52:50;84062.26;;;3.15;34.43
70437;BME280;57877;39.750;-104.894;2023-12-22T10:55:10;84063.62;;;3.22;34.19
70437;BME280;57877;39.750;-104.894;2023-12-22T10:57:35;84065.71;;;3.20;34.08
70437;BME280;57877;39.750;-104.894;2023-12-22T11:00:01;84063.33;;;3.32;33.88
70437;BME280;57877;39.750;-104.894;2023-12-22T11:02:28;84063.26;;;3.31;33.66
70437;BME280;57877;39.750;-104.894;2023-12-22T11:04:57;84063.56;;;3.13;33.49
70437;BME280;57877;39.750;-104.894;2023-12-22T11:07:17;84056.85;;;3.09;34.38
70437;BME280;57877;39.750;-104.894;2023-12-22T11:09:43;84052.68;;;3.04;33.98
70437;BME280;57877;39.750;-104.894;2023-12-22T11:12:07;84050.23;;;2.48;35.22
70437;BME280;57877;39.750;-104.894;2023-12-22T11:14:32;84048.15;;;2.66;35.05
70437;BME280;57877;39.750;-104.894;2023-12-22T11:16:56;84044.60;;;2.66;34.97
70437;BME280;57877;39.750;-104.894;2023-12-22T11:19:23;84040.14;;;1.97;36.06
70437;BME280;57877;39.750;-104.894;2023-12-22T11:21:47;84038.13;;;2.06;35.98
70437;BME280;57877;39.750;-104.894;2023-12-22T11:24:13;84032.01;;;2.03;36.25
70437;BME280;57877;39.750;-104.894;2023-12-22T11:26:38;84030.17;;;1.80;36.12
70437;BME280;57877;39.750;-104.894;2023-12-22T11:29:03;84025.90;;;2.62;35.07
70437;BME280;57877;39.750;-104.894;2023-12-22T11:31:28;84028.24;;;2.39;35.39
70437;BME280;57877;39.750;-104.894;2023-12-22T11:33:52;84028.64;;;2.43;35.31
70437;BME280;57877;39.750;-104.894;2023-12-22T11:36:18;84029.81;;;2.74;34.30
70437;BME280;57877;39.750;-104.894;2023-12-22T11:38:44;84032.35;;;2.57;34.16
70437;BME280;57877;39.750;-104.894;2023-12-22T11:41:12;84035.31;;;2.85;33.81
70437;BME280;57877;39.750;-104.894;2023-12-22T11:43:34;84036.28;;;3.10;33.90
70437;BME280;57877;39.750;-104.894;2023-12-22T11:46:02;84033.67;;;3.12;33.86
70437;BME280;57877;39.750;-104.894;2023-12-22T11:48:23;84033.46;;;2.62;33.75
70437;BME280;57877;39.750;-104.894;2023-12-22T11:50:48;84028.12;;;2.83;34.08
70437;BME280;57877;39.750;-104.894;2023-12-22T11:53:18;84025.21;;;2.98;33.79
70437;BME280;57877;39.750;-104.894;2023-12-22T12:02:55;84033.82;;;2.99;32.70
70437;BME280;57877;39.750;-104.894;2023-12-22T12:05:18;84033.60;;;3.14;32.61
70437;BME280;57877;39.750;-104.894;2023-12-22T12:07:44;84033.20;;;3.06;32.42
70437;BME280;57877;39.750;-104.894;2023-12-22T12:10:09;84032.07;;;3.07;32.49
70437;BME280;57877;39.750;-104.894;2023-12-22T12:12:34;84034.23;;;3.15;32.35
70437;BME280;57877;39.750;-104.894;2023-12-22T12:15:07;84036.04;;;3.56;32.32
70437;BME280;57877;39.750;-104.894;2023-12-22T12:17:24;84035.28;;;3.54;32.03
70437;BME280;57877;39.750;-104.894;2023-12-22T12:19:49;84031.71;;;2.87;32.74
70437;BME280;57877;39.750;-104.894;2023-12-22T12:22:14;84031.32;;;2.72;32.77
70437;BME280;57877;39.750;-104.894;2023-12-22T12:24:40;84023.78;;;2.39;33.10
70437;BME280;57877;39.750;-104.894;2023-12-22T12:27:05;84023.86;;;2.82;33.41
70437;BME280;57877;39.750;-104.894;2023-12-22T12:29:29;84025.13;;;2.57;33.63
70437;BME280;57877;39.750;-104.894;2023-12-22T12:32:02;84022.95;;;2.35;33.42
70437;BME280;57877;39.750;-104.894;2023-12-22T12:34:19;84026.18;;;2.78;33.04
70437;BME280;57877;39.750;-104.894;2023-12-22T12:36:46;84027.09;;;2.49;33.60